• Join FlightAware (Why Join?)
  • Login
  • US Flag GB Flag 
15:32 EDT


 

Airport Tracker/Info


-or-


 

Live Flight TrackerFlight Track Log ✈ FIN666 ✈ 12-Oct-2013 ✈ EKCH / CPH - EFHK / HEL

Flight Track Log - Related Links

Times and Time Zones

All times are in EDT time to prevent confusion due to time zone crossing. See the FIN666 flight status page for this flight to view local times or setup timezone preferences in your user account.

Time Position Orientation Groundspeed Altitude Reporting Facility
EDT Latitude Longitude Course Direction KTS MPH feet Rate Location/Type
07:35 55.8300 13.0940 49° Northeast  Level Estimated
07:36 55.9003 13.2411 49° Northeast  Level Estimated
07:37 55.9714 13.3907 50° Northeast  Level Estimated
07:38 56.0424 13.5409 50° Northeast  Level Estimated
07:39 56.1131 13.6916 50° Northeast  Level Estimated
07:40 56.1837 13.8429 50° Northeast  Level Estimated
07:41 56.2541 13.9947 50° Northeast  Level Estimated
07:42 56.3243 14.1471 50° Northeast  Level Estimated
07:43 56.3943 14.3001 50° Northeast  Level Estimated
07:44 56.4641 14.4536 50° Northeast  Level Estimated
07:45 56.5337 14.6077 51° Northeast  Level Estimated
07:46 56.6032 14.7623 51° Northeast  Level Estimated
07:47 56.6724 14.9176 51° Northeast  Level Estimated
07:48 56.7415 15.0733 51° Northeast  Level Estimated
07:49 56.8104 15.2297 51° Northeast  Level Estimated
07:50 56.8790 15.3867 51° Northeast  Level Estimated
07:51 56.9475 15.5442 51° Northeast  Level Estimated
07:52 57.0158 15.7023 52° Northeast  Level Estimated
07:53 57.0838 15.8610 52° Northeast  Level Estimated
07:54 57.1517 16.0202 52° Northeast  Level Estimated
07:55 57.2194 16.1800 52° Northeast  Level Estimated
07:56 57.2868 16.3405 52° Northeast  Level Estimated
07:57 57.3541 16.5015 52° Northeast  Level Estimated
07:58 57.4211 16.6631 52° Northeast  Level Estimated
07:59 57.4880 16.8253 52° Northeast  Level Estimated
08:00 57.5546 16.9881 53° Northeast  Level Estimated
08:01 57.6210 17.1515 53° Northeast  Level Estimated
08:02 57.6872 17.3155 53° Northeast  Level Estimated
08:03 57.7532 17.4801 53° Northeast  Level Estimated
08:04 57.8190 17.6453 53° Northeast  Level Estimated
08:05 57.8846 17.8111 53° Northeast  Level Estimated
08:06 57.9499 17.9774 53° Northeast  Level Estimated
08:07 58.0151 18.1444 54° Northeast  Level Estimated
08:08 58.0800 18.3121 54° Northeast  Level Estimated
08:09 58.1447 18.4803 54° Northeast  Level Estimated
08:10 58.2091 18.6491 54° Northeast  Level Estimated
08:11 58.2734 18.8186 54° Northeast  Level Estimated
08:12 58.3374 18.9886 54° Northeast  Level Estimated
08:13 58.4012 19.1593 54° Northeast  Level Estimated
08:14 58.4648 19.3306 55° Northeast  Level Estimated
08:15 58.5281 19.5025 55° Northeast  Level Estimated
08:16 58.5912 19.6750 55° Northeast  Level Estimated
08:17 58.6541 19.8482 55° Northeast  Level Estimated
08:18 58.7167 20.0219 55° Northeast  Level Estimated
08:19 58.7791 20.1964 55° Northeast  Level Estimated
08:20 58.8413 20.3714 55° Northeast  Level Estimated
08:21 58.9033 20.5470 56° Northeast  Level Estimated
08:22 58.9650 20.7233 56° Northeast  Level Estimated
08:23 59.0264 20.9002 56° Northeast  Level Estimated
08:24 59.0876 21.0778 56° Northeast  Level Estimated
08:25 59.1486 21.2560 56° Northeast  Level Estimated
08:26 59.2102 21.4373 56° Northeast  Level Estimated
08:27 59.2715 21.6193 57° Northeast  Level Estimated
08:28 59.3325 21.8019 57° Northeast  Level Estimated
08:29 59.3933 21.9851 57° Northeast  Level Estimated
08:30 59.4539 22.1691 57° Northeast  Level Estimated
08:31 59.5142 22.3537 57° Northeast  Level Estimated
08:32 59.5742 22.5389 57° Northeast  Level Estimated
08:33 59.6340 22.7248 57° Northeast  Level Estimated
08:34 59.6935 22.9114 58° Northeast  Level Estimated
08:35 59.7527 23.0986 58° Northeast  Level Estimated
08:36 59.8117 23.2865 58° Northeast  Level Estimated
08:37 59.8704 23.4751 58° Northeast  Level Estimated
08:38 59.9288 23.6643 58° Northeast  Level Estimated
08:39 59.9869 23.8542 58° Northeast  Level Estimated
08:40 60.0448 24.0448 59° Northeast  Level Estimated
08:41 60.1024 24.2360 59° Northeast  Level Estimated
08:42 60.1598 24.4279 59° Northeast  Level Estimated
08:43 60.2168 24.6205 59° Northeast  Level Estimated
08:44 60.2736 24.8137 59° Northeast  Level Estimated
08:45 60.3172 24.9633 59° Northeast  Level Estimated
08:46 60.3172 24.9633 37° Northeast  Level Estimated
08:47 60.3172 24.9633 37° Northeast  Level Estimated
08:48 60.3172 24.9633 37° Northeast  Level Estimated
08:49 60.3172 24.9633 37° Northeast  Level Estimated
08:50 60.3172 24.9633 37° Northeast  Level Estimated
08:51 60.3172 24.9633 37° Northeast  Level Estimated
08:52 60.3172 24.9633 37° Northeast  Level Estimated
08:53 60.3172 24.9633 37° Northeast  Level Estimated
08:54 60.3172 24.9633 37° Northeast  Level Estimated